Time;durP1;ratioP1;P1;durP2;ratioP2;P2;SDS_P1;SDS_P2;PMS_P1;PMS_P2;Temp;Humidity;BMP_temperature;BMP_pressure;BME280_temperature;BME280_humidity;BME280_pressure;Samples;Min_cycle;Max_cycle;Signal;HPM_P1;HPM_P2
2023/03/24 00:00:41;;;;;;;11.55;4.85;;;12.20;99.90;;;;;;4992945;28;20030;-74
2023/03/24 00:03:06;;;;;;;10.93;4.80;;;12.20;99.90;;;;;;4994336;28;20086;-74
2023/03/24 00:05:32;;;;;;;11.95;4.80;;;12.20;99.90;;;;;;4994720;28;20069;-74
2023/03/24 00:07:58;;;;;;;10.70;4.63;;;12.20;99.90;;;;;;4995045;28;20057;-75
2023/03/24 00:10:29;;;;;;;14.02;4.90;;;12.20;99.90;;;;;;4994243;28;20031;-74
2023/03/24 00:12:57;;;;;;;9.73;4.65;;;12.30;99.90;;;;;;4994071;28;20134;-74
2023/03/24 00:15:23;;;;;;;12.75;4.63;;;12.30;99.90;;;;;;4990867;28;20038;-75
2023/03/24 00:17:49;;;;;;;11.60;5.25;;;12.30;99.90;;;;;;4995967;28;20030;-75
2023/03/24 00:20:17;;;;;;;11.93;4.72;;;12.30;99.90;;;;;;4992741;28;20072;-75
2023/03/24 00:22:48;;;;;;;14.38;4.65;;;12.30;99.90;;;;;;4994291;28;20128;-74
2023/03/24 00:25:22;;;;;;;9.27;4.40;;;12.30;99.90;;;;;;5005650;28;20042;-75
2023/03/24 00:27:48;;;;;;;11.20;4.63;;;12.40;99.90;;;;;;4995481;28;20042;-74
2023/03/24 00:30:15;;;;;;;11.32;4.45;;;12.40;99.90;;;;;;4994150;28;20046;-75
2023/03/24 00:32:41;;;;;;;10.30;4.70;;;12.50;99.90;;;;;;4983297;28;20369;-75
2023/03/24 00:35:08;;;;;;;13.85;4.65;;;12.50;99.90;;;;;;4979242;28;20030;-75
2023/03/24 00:37:38;;;;;;;9.32;4.15;;;12.50;99.90;;;;;;4994803;28;20057;-75
2023/03/24 00:40:08;;;;;;;11.23;4.22;;;12.50;99.90;;;;;;4995942;28;20054;-75
2023/03/24 00:42:35;;;;;;;7.78;3.80;;;12.60;99.90;;;;;;4981574;28;20030;-74
2023/03/24 00:45:07;;;;;;;8.70;3.83;;;12.60;99.90;;;;;;4995442;28;20019;-75
2023/03/24 00:47:36;;;;;;;9.40;3.97;;;12.60;99.90;;;;;;4994489;28;20046;-74
2023/03/24 00:50:11;;;;;;;7.15;4.00;;;12.60;99.90;;;;;;4994436;28;20732;-75
2023/03/24 00:52:42;;;;;;;10.07;4.38;;;12.60;99.90;;;;;;4983414;28;20747;-76
2023/03/24 00:55:12;;;;;;;7.47;4.10;;;12.70;99.90;;;;;;4982843;28;20038;-75
2023/03/24 00:57:39;;;;;;;8.23;3.75;;;12.70;99.90;;;;;;4994033;28;20041;-75
2023/03/24 01:00:13;;;;;;;9.95;4.03;;;12.70;99.90;;;;;;4993184;28;20086;-75
2023/03/24 01:02:38;;;;;;;7.03;4.13;;;12.70;99.90;;;;;;4987080;28;20030;-75
2023/03/24 01:05:05;;;;;;;9.10;4.45;;;12.60;99.90;;;;;;4995090;28;20023;-75
2023/03/24 01:07:32;;;;;;;7.55;4.00;;;12.70;99.90;;;;;;4995813;28;20023;-75
2023/03/24 01:09:58;;;;;;;9.48;3.92;;;12.70;99.90;;;;;;4992567;28;20038;-75
2023/03/24 01:12:25;;;;;;;8.40;4.35;;;12.60;99.90;;;;;;4993955;28;20043;-75
2023/03/24 01:14:52;;;;;;;9.32;4.32;;;12.60;99.90;;;;;;4994079;28;20469;-76
2023/03/24 01:17:21;;;;;;;5.68;3.70;;;12.60;99.90;;;;;;4990163;28;20114;-76
2023/03/24 01:19:47;;;;;;;7.70;3.88;;;12.60;99.90;;;;;;4986713;28;20041;-75
2023/03/24 01:22:12;;;;;;;7.57;4.10;;;12.70;99.90;;;;;;4988015;28;20389;-76
2023/03/24 01:24:38;;;;;;;10.38;3.80;;;12.70;99.90;;;;;;4993112;28;20028;-76
2023/03/24 01:27:04;;;;;;;9.32;3.70;;;12.70;99.90;;;;;;4991242;28;20094;-76
2023/03/24 01:29:30;;;;;;;7.97;3.80;;;12.70;99.90;;;;;;4989352;28;20060;-76
2023/03/24 01:31:56;;;;;;;9.05;3.88;;;12.70;99.90;;;;;;4982630;28;20031;-76
2023/03/24 01:34:21;;;;;;;9.23;4.35;;;12.70;99.90;;;;;;4986539;28;20038;-76
2023/03/24 01:36:47;;;;;;;8.07;4.10;;;12.70;99.90;;;;;;4994083;28;20023;-76
2023/03/24 01:39:12;;;;;;;9.15;3.38;;;12.60;99.90;;;;;;4984691;28;20058;-76
2023/03/24 01:41:39;;;;;;;6.68;3.08;;;12.60;99.90;;;;;;4976134;28;20043;-75
2023/03/24 01:44:31;;;;;;;12.27;3.38;;;12.60;99.90;;;;;;4981563;28;20018;-75
2023/03/24 01:46:57;;;;;;;7.28;2.60;;;12.50;99.90;;;;;;4978056;28;20370;-75
2023/03/24 01:49:27;;;;;;;9.13;1.85;;;12.50;99.90;;;;;;4987596;28;20121;-76
2023/03/24 01:51:56;;;;;;;10.52;2.08;;;12.40;99.90;;;;;;4986923;28;20027;-75
2023/03/24 01:54:50;;;;;;;10.30;2.08;;;12.30;99.90;;;;;;4993447;28;20034;-74
2023/03/24 01:57:25;;;;;;;9.45;2.22;;;12.30;99.90;;;;;;4991358;28;20010;-74
2023/03/24 01:59:56;;;;;;;14.07;2.72;;;12.10;99.90;;;;;;4993505;28;20081;-74
2023/03/24 02:02:22;;;;;;;11.45;2.38;;;12.00;99.90;;;;;;4982669;28;20103;-74
2023/03/24 02:04:53;;;;;;;12.80;2.67;;;11.90;99.90;;;;;;4988173;28;20030;-74
2023/03/24 02:07:59;;;;;;;13.20;2.67;;;11.80;99.90;;;;;;4993353;28;20508;-74
2023/03/24 02:10:25;;;;;;;14.52;2.47;;;11.80;99.90;;;;;;4992656;28;20134;-74
2023/03/24 02:12:50;;;;;;;15.55;2.90;;;11.70;99.90;;;;;;4992878;28;20046;-74
2023/03/24 02:15:18;;;;;;;18.10;2.15;;;11.60;99.90;;;;;;4980156;28;20451;-75
2023/03/24 02:18:07;;;;;;;16.50;2.72;;;11.50;99.90;;;;;;4993209;28;20027;-74
2023/03/24 02:20:54;;;;;;;20.90;2.88;;;11.50;99.90;;;;;;4992113;28;20030;-74
2023/03/24 02:23:50;;;;;;;15.90;2.80;;;11.40;99.90;;;;;;4993630;28;20077;-74
2023/03/24 02:26:44;;;;;;;15.88;2.47;;;11.40;99.90;;;;;;4993766;28;20512;-74
2023/03/24 02:29:47;;;;;;;15.55;2.90;;;11.30;99.90;;;;;;4975159;28;20035;-75
2023/03/24 02:32:40;;;;;;;16.90;3.15;;;11.30;99.90;;;;;;4987870;28;20806;-74
2023/03/24 02:35:19;;;;;;;21.38;3.08;;;11.20;99.90;;;;;;4989327;28;20452;-74
2023/03/24 02:38:07;;;;;;;20.02;3.22;;;11.10;99.90;;;;;;4977655;28;20493;-74
2023/03/24 02:40:54;;;;;;;15.15;2.67;;;11.10;99.90;;;;;;4994624;28;20527;-74
2023/03/24 02:43:25;;;;;;;20.65;2.75;;;11.00;99.90;;;;;;4996292;28;20069;-74
2023/03/24 02:46:14;;;;;;;22.42;3.05;;;11.00;99.90;;;;;;4996507;28;20018;-74
2023/03/24 02:48:55;;;;;;;15.38;2.88;;;10.90;99.90;;;;;;4983017;28;20019;-74
2023/03/24 02:51:31;;;;;;;16.98;2.65;;;10.90;99.90;;;;;;4991553;28;20130;-74
2023/03/24 02:54:08;;;;;;;18.20;2.53;;;10.80;99.90;;;;;;4988731;28;20097;-74
2023/03/24 02:56:47;;;;;;;19.27;3.50;;;10.80;99.90;;;;;;4996861;28;20035;-75
2023/03/24 02:59:33;;;;;;;21.05;3.05;;;10.70;99.90;;;;;;4996279;28;20022;-74
2023/03/24 03:02:19;;;;;;;;;;;10.70;99.90;;;;;;4988785;28;20027;-74
2023/03/24 03:04:51;;;;;;;18.73;3.78;;;10.60;99.90;;;;;;4996543;28;19913;-74
2023/03/24 03:07:21;;;;;;;18.15;3.70;;;10.50;99.90;;;;;;4996782;28;20031;-74
2023/03/24 03:10:04;;;;;;;22.60;3.60;;;10.50;99.90;;;;;;4995053;28;20023;-74
2023/03/24 03:12:34;;;;;;;26.08;3.80;;;10.50;99.90;;;;;;4982115;28;20047;-74
2023/03/24 03:15:05;;;;;;;25.60;3.60;;;10.40;99.90;;;;;;4985735;28;20014;-74
2023/03/24 03:17:37;;;;;;;20.70;3.67;;;10.40;99.90;;;;;;4987476;28;20022;-74
2023/03/24 03:20:17;;;;;;;20.17;3.00;;;10.30;99.90;;;;;;4996451;28;20105;-75
2023/03/24 03:22:48;;;;;;;22.17;3.28;;;10.30;99.90;;;;;;4983550;28;20027;-75
2023/03/24 03:25:19;;;;;;;18.58;3.03;;;10.30;99.90;;;;;;4988168;28;20026;-75
2023/03/24 03:27:46;;;;;;;19.35;3.15;;;10.30;99.90;;;;;;4987274;28;20031;-73
2023/03/24 03:30:21;;;;;;;17.60;3.30;;;10.30;99.90;;;;;;4988998;28;20045;-73
2023/03/24 03:32:53;;;;;;;;;;;10.30;99.90;;;;;;4986814;28;20023;-74
2023/03/24 03:35:41;;;;;;;29.88;3.63;;;10.30;99.90;;;;;;4982245;28;19914;-74
2023/03/24 03:38:26;;;;;;;21.35;3.75;;;10.30;99.90;;;;;;4979662;28;20116;-74
2023/03/24 03:40:54;;;;;;;24.05;3.88;;;10.30;99.90;;;;;;4989833;28;20061;-74
2023/03/24 03:43:21;;;;;;;27.33;3.47;;;10.30;99.90;;;;;;4983593;28;20358;-74
2023/03/24 03:45:47;;;;;;;29.20;3.92;;;10.30;99.90;;;;;;4990488;28;20027;-74
2023/03/24 03:48:14;;;;;;;19.60;3.80;;;10.30;99.90;;;;;;4995100;28;20514;-75
2023/03/24 03:50:39;;;;;;;25.63;4.00;;;10.30;99.90;;;;;;4992489;28;20034;-74
2023/03/24 03:53:06;;;;;;;20.83;3.65;;;10.30;99.90;;;;;;4990563;28;20022;-73
2023/03/24 03:55:34;;;;;;;27.77;3.63;;;10.20;99.90;;;;;;4991208;28;20022;-75
2023/03/24 03:58:00;;;;;;;25.75;4.20;;;10.30;99.90;;;;;;4996102;28;20069;-74
2023/03/24 04:00:26;;;;;;;30.40;4.03;;;10.20;99.90;;;;;;4992801;28;20030;-74
2023/03/24 04:03:06;;;;;;;30.40;4.72;;;10.20;99.90;;;;;;4993671;28;20030;-74
2023/03/24 04:05:36;;;;;;;26.30;4.20;;;10.20;99.90;;;;;;4997946;28;20054;-74
2023/03/24 04:08:08;;;;;;;30.88;4.43;;;10.20;99.90;;;;;;4993144;28;20039;-74
2023/03/24 04:10:42;;;;;;;29.63;4.03;;;10.20;99.90;;;;;;4994654;28;20069;-76
2023/03/24 04:13:23;;;;;;;28.70;4.30;;;10.20;99.90;;;;;;4993980;28;20054;-74
2023/03/24 04:15:48;;;;;;;27.83;4.28;;;10.20;99.90;;;;;;4994179;28;20046;-74
2023/03/24 04:18:29;;;;;;;29.88;4.70;;;10.10;99.90;;;;;;4992900;28;20020;-74
2023/03/24 04:21:32;;;;;;;24.25;4.38;;;10.10;99.90;;;;;;4990826;28;20101;-74
2023/03/24 04:24:12;;;;;;;28.75;4.03;;;10.10;99.90;;;;;;4992614;28;20029;-74
2023/03/24 04:26:59;;;;;;;30.65;4.30;;;10.00;99.90;;;;;;4992699;28;20030;-74
2023/03/24 04:29:45;;;;;;;30.20;4.30;;;10.00;99.90;;;;;;4994202;28;20137;-74
2023/03/24 04:32:27;;;;;;;35.22;4.40;;;9.90;99.90;;;;;;4994669;28;20040;-74
2023/03/24 04:35:00;;;;;;;37.10;4.38;;;9.90;99.90;;;;;;4993068;28;20026;-74
2023/03/24 04:37:31;;;;;;;37.65;5.03;;;9.90;99.90;;;;;;4986019;28;20109;-74
2023/03/24 04:39:59;;;;;;;34.88;4.57;;;9.90;99.90;;;;;;4991766;28;20033;-74
2023/03/24 04:42:31;;;;;;;34.63;4.55;;;9.90;99.90;;;;;;4992414;28;20114;-74
2023/03/24 04:44:57;;;;;;;44.72;5.32;;;9.90;99.90;;;;;;5006893;28;20057;-74
2023/03/24 04:47:26;;;;;;;36.42;4.88;;;9.80;99.90;;;;;;4982026;28;20137;-74
2023/03/24 04:50:00;;;;;;;38.40;5.28;;;9.80;99.90;;;;;;4988940;28;20038;-74
2023/03/24 04:52:26;;;;;;;36.70;4.95;;;9.80;99.90;;;;;;4992515;28;20497;-74
2023/03/24 04:54:52;;;;;;;45.50;5.55;;;9.80;99.90;;;;;;4991092;28;20106;-73
2023/03/24 04:57:17;;;;;;;43.05;5.70;;;9.80;99.90;;;;;;4993692;28;20038;-74
2023/03/24 04:59:43;;;;;;;34.40;4.40;;;9.90;99.90;;;;;;4986714;28;20422;-74
2023/03/24 05:02:09;;;;;;;33.08;4.53;;;9.80;99.90;;;;;;4990093;28;20026;-74
2023/03/24 05:04:35;;;;;;;41.47;4.95;;;9.90;99.90;;;;;;4992385;28;20019;-75
2023/03/24 05:07:02;;;;;;;35.65;4.38;;;9.90;99.90;;;;;;4988368;28;20027;-75
2023/03/24 05:09:30;;;;;;;42.25;4.50;;;9.90;99.90;;;;;;4994832;28;20485;-75
2023/03/24 05:11:56;;;;;;;33.03;4.63;;;9.90;99.90;;;;;;4996119;28;20030;-74
2023/03/24 05:14:22;;;;;;;35.15;5.50;;;9.90;99.90;;;;;;4992820;28;20026;-75
2023/03/24 05:16:48;;;;;;;29.35;4.68;;;9.90;99.90;;;;;;5002267;28;20409;-76
2023/03/24 05:19:14;;;;;;;34.30;5.28;;;9.90;99.90;;;;;;4975963;28;20106;-75
2023/03/24 05:21:40;;;;;;;38.83;5.10;;;9.90;99.90;;;;;;4989120;28;20036;-75
2023/03/24 05:24:06;;;;;;;37.38;4.72;;;9.90;99.90;;;;;;4976085;28;20102;-75
2023/03/24 05:26:32;;;;;;;30.38;4.05;;;9.90;99.90;;;;;;4986992;28;20139;-75
2023/03/24 05:28:58;;;;;;;33.20;4.22;;;10.00;99.90;;;;;;4995675;28;20006;-76
2023/03/24 05:31:23;;;;;;;33.83;4.07;;;10.00;99.90;;;;;;4995739;28;20033;-75
2023/03/24 05:33:49;;;;;;;31.83;4.28;;;10.00;99.90;;;;;;4984410;28;20023;-75
2023/03/24 05:36:15;;;;;;;30.13;4.20;;;10.10;99.90;;;;;;4987810;28;20389;-76
2023/03/24 05:38:40;;;;;;;33.30;4.60;;;10.10;99.90;;;;;;4981877;28;20462;-75
2023/03/24 05:41:06;;;;;;;32.33;4.53;;;10.10;99.90;;;;;;4989849;28;20018;-75
2023/03/24 05:43:32;;;;;;;28.58;4.30;;;10.10;99.90;;;;;;4990601;28;20057;-75
2023/03/24 05:45:59;;;;;;;28.50;4.22;;;10.10;99.90;;;;;;4988609;28;20023;-75
2023/03/24 05:48:25;;;;;;;30.90;4.35;;;10.10;99.90;;;;;;4995799;28;20033;-75
2023/03/24 05:50:52;;;;;;;34.45;4.65;;;10.20;99.90;;;;;;4993116;28;20073;-75
2023/03/24 05:53:17;;;;;;;32.42;4.57;;;10.20;99.90;;;;;;4975665;28;20042;-76
2023/03/24 05:55:45;;;;;;;28.90;4.05;;;10.20;99.90;;;;;;4981494;28;20035;-75
2023/03/24 05:58:11;;;;;;;27.17;4.45;;;10.20;99.90;;;;;;4986349;28;20031;-75
2023/03/24 06:00:37;;;;;;;29.35;4.30;;;10.10;99.90;;;;;;5021025;28;20049;-75
2023/03/24 06:03:04;;;;;;;28.50;4.60;;;10.20;99.90;;;;;;4993502;28;20041;-75
2023/03/24 06:05:30;;;;;;;31.85;4.00;;;10.20;99.90;;;;;;4992701;28;20043;-75
2023/03/24 06:07:57;;;;;;;31.48;4.18;;;10.20;99.90;;;;;;4973818;28;20053;-75
2023/03/24 06:10:25;;;;;;;26.90;4.63;;;10.20;99.90;;;;;;4987911;28;20049;-75
2023/03/24 06:12:51;;;;;;;37.13;3.90;;;10.20;99.90;;;;;;4974132;28;20070;-75
2023/03/24 06:15:17;;;;;;;29.25;4.20;;;10.20;99.90;;;;;;4986421;28;20014;-75
2023/03/24 06:17:44;;;;;;;34.50;5.13;;;10.20;99.90;;;;;;4989528;28;20033;-75
2023/03/24 06:20:14;;;;;;;25.88;4.15;;;10.20;99.90;;;;;;4989007;28;20073;-76
2023/03/24 06:22:43;;;;;;;32.35;5.03;;;10.20;99.90;;;;;;4991821;28;20034;-76
2023/03/24 06:25:09;;;;;;;33.67;4.65;;;10.20;99.90;;;;;;4992363;28;20033;-76
2023/03/24 06:27:35;;;;;;;34.55;4.32;;;10.20;99.90;;;;;;4987729;28;20548;-76
2023/03/24 06:30:01;;;;;;;33.50;4.65;;;10.20;99.90;;;;;;4989078;28;20077;-76
2023/03/24 06:32:27;;;;;;;36.95;4.88;;;10.20;99.90;;;;;;4997391;28;20054;-76
2023/03/24 06:34:53;;;;;;;39.63;4.10;;;10.20;99.90;;;;;;4987111;28;20025;-76
2023/03/24 06:37:21;;;;;;;39.65;4.40;;;10.20;99.90;;;;;;4996331;28;20003;-76
2023/03/24 06:39:47;;;;;;;33.95;4.60;;;10.20;99.90;;;;;;4989047;28;20031;-76
2023/03/24 06:42:13;;;;;;;26.60;4.10;;;10.20;99.90;;;;;;4994641;28;20015;-74
2023/03/24 06:44:39;;;;;;;32.65;5.30;;;10.20;99.90;;;;;;4981187;28;20030;-75
2023/03/24 06:47:04;;;;;;;34.55;4.63;;;10.20;99.90;;;;;;4994083;28;20023;-75
2023/03/24 06:49:33;;;;;;;27.70;4.32;;;10.20;99.90;;;;;;5006760;28;20038;-75
2023/03/24 06:51:58;;;;;;;37.97;4.57;;;10.30;99.90;;;;;;4987218;28;20019;-75
2023/03/24 06:54:25;;;;;;;25.92;4.10;;;10.30;99.90;;;;;;4992161;28;20014;-75
2023/03/24 06:56:50;;;;;;;25.23;3.85;;;10.30;99.90;;;;;;5005500;28;20038;-76
2023/03/24 06:59:16;;;;;;;30.65;4.13;;;10.30;99.90;;;;;;4988230;28;20033;-76
2023/03/24 07:01:42;;;;;;;32.38;4.25;;;10.30;99.90;;;;;;4992426;28;20472;-76
2023/03/24 07:04:07;;;;;;;34.25;4.85;;;10.30;99.90;;;;;;4991034;28;20029;-76
2023/03/24 07:06:33;;;;;;;37.90;4.53;;;10.40;99.90;;;;;;4991308;28;20035;-76
2023/03/24 07:08:59;;;;;;;35.35;4.75;;;10.40;99.90;;;;;;4993108;28;20029;-76
2023/03/24 07:11:25;;;;;;;34.00;4.95;;;10.40;99.90;;;;;;4984312;28;20110;-76
2023/03/24 07:13:50;;;;;;;30.50;4.15;;;10.40;99.90;;;;;;4992824;28;20054;-76
2023/03/24 07:16:16;;;;;;;29.35;4.35;;;10.50;99.90;;;;;;4992959;28;20023;-74
2023/03/24 07:18:41;;;;;;;32.38;4.28;;;10.50;99.90;;;;;;4980138;28;20035;-74
2023/03/24 07:21:07;;;;;;;34.17;4.07;;;10.50;99.90;;;;;;4980649;28;20050;-75
2023/03/24 07:23:34;;;;;;;29.75;4.53;;;10.50;99.90;;;;;;4983307;28;20057;-74
2023/03/24 07:26:00;;;;;;;33.92;5.13;;;10.50;99.90;;;;;;4982766;28;20026;-74
2023/03/24 07:28:25;;;;;;;23.15;3.70;;;10.60;99.90;;;;;;4991691;28;20030;-74
2023/03/24 07:30:51;;;;;;;26.33;3.80;;;10.60;99.90;;;;;;4984378;28;20034;-74
2023/03/24 07:33:17;;;;;;;31.58;4.70;;;10.70;99.90;;;;;;4989472;28;20689;-76
2023/03/24 07:35:42;;;;;;;34.17;4.72;;;10.70;99.90;;;;;;4997966;28;20033;-76
2023/03/24 07:38:09;;;;;;;21.52;3.75;;;10.80;99.90;;;;;;4981621;28;20023;-75
2023/03/24 07:40:35;;;;;;;26.73;4.03;;;10.80;99.90;;;;;;4992148;28;20034;-75
2023/03/24 07:43:04;;;;;;;26.00;4.13;;;10.80;99.90;;;;;;4985424;28;20014;-75
2023/03/24 07:45:30;;;;;;;31.92;3.60;;;10.90;99.90;;;;;;4996955;28;20029;-75
2023/03/24 07:48:00;;;;;;;23.02;3.15;;;10.90;99.90;;;;;;4993522;28;20018;-75
2023/03/24 07:50:27;;;;;;;26.80;3.53;;;11.00;99.90;;;;;;4990975;28;20042;-74
2023/03/24 07:52:53;;;;;;;26.20;3.80;;;11.00;99.90;;;;;;4992823;28;20033;-75
2023/03/24 07:55:18;;;;;;;25.23;3.83;;;11.00;99.90;;;;;;4996783;28;20018;-74
2023/03/24 07:57:48;;;;;;;26.45;3.75;;;11.00;99.90;;;;;;4997185;28;20027;-74
2023/03/24 08:00:23;;;;;;;25.23;3.67;;;11.00;99.90;;;;;;4997359;28;20105;-75
2023/03/24 08:02:52;;;;;;;26.77;3.53;;;11.00;99.90;;;;;;4997003;28;20030;-75
2023/03/24 08:05:19;;;;;;;22.83;3.50;;;11.00;99.90;;;;;;4991117;28;20026;-75
2023/03/24 08:07:52;;;;;;;19.15;2.70;;;11.10;99.90;;;;;;4988518;28;20040;-75
2023/03/24 08:10:19;;;;;;;22.58;3.97;;;11.10;99.90;;;;;;4982297;28;20674;-75
2023/03/24 08:12:46;;;;;;;26.13;4.07;;;11.20;99.90;;;;;;4996702;28;20089;-75
2023/03/24 08:15:13;;;;;;;32.58;3.97;;;11.30;99.90;;;;;;4985295;28;20154;-75
2023/03/24 08:17:39;;;;;;;23.35;3.70;;;11.30;99.90;;;;;;4997004;28;20460;-75
2023/03/24 08:20:08;;;;;;;24.55;3.38;;;11.30;99.90;;;;;;4980894;28;20031;-76
2023/03/24 08:22:34;;;;;;;24.90;3.83;;;11.40;99.90;;;;;;4990860;28;20046;-76
2023/03/24 08:25:00;;;;;;;18.10;3.30;;;11.40;99.90;;;;;;4982074;28;20037;-76
2023/03/24 08:27:25;;;;;;;21.88;3.78;;;11.40;99.90;;;;;;4986475;28;20437;-75
2023/03/24 08:29:51;;;;;;;23.63;3.75;;;11.50;99.90;;;;;;4995177;28;20029;-76
2023/03/24 08:32:16;;;;;;;17.02;3.05;;;11.50;99.90;;;;;;4993270;28;20022;-76
2023/03/24 08:34:43;;;;;;;21.00;3.13;;;11.60;99.90;;;;;;5005412;28;20037;-75
2023/03/24 08:37:10;;;;;;;22.02;3.35;;;11.60;99.90;;;;;;4996080;28;20057;-76
2023/03/24 08:39:36;;;;;;;23.85;3.70;;;11.60;99.90;;;;;;4986749;28;20027;-76
2023/03/24 08:42:02;;;;;;;18.05;3.10;;;11.60;99.90;;;;;;4986316;28;20430;-76
2023/03/24 08:44:28;;;;;;;19.60;3.58;;;11.70;99.90;;;;;;4996430;28;20105;-75
2023/03/24 08:46:53;;;;;;;25.90;3.60;;;11.70;99.90;;;;;;4988647;28;20112;-76
2023/03/24 08:49:20;;;;;;;14.23;3.05;;;11.70;99.90;;;;;;4995126;28;20030;-76
2023/03/24 08:51:45;;;;;;;22.30;3.55;;;11.80;99.90;;;;;;4994430;28;20108;-76
2023/03/24 08:54:12;;;;;;;22.10;3.10;;;11.80;99.90;;;;;;4987665;28;20062;-75
2023/03/24 08:56:38;;;;;;;20.45;3.08;;;11.80;99.90;;;;;;4990304;28;20163;-75
2023/03/24 08:59:05;;;;;;;26.42;3.65;;;11.80;99.90;;;;;;4992541;28;20038;-75
2023/03/24 09:01:32;;;;;;;19.48;3.20;;;11.90;99.90;;;;;;4994987;28;20022;-75
2023/03/24 09:03:58;;;;;;;17.75;2.88;;;12.00;99.90;;;;;;4988450;28;20045;-75
2023/03/24 09:06:26;;;;;;;21.48;3.17;;;12.10;99.90;;;;;;4990999;28;20094;-75
2023/03/24 09:08:57;;;;;;;29.23;3.80;;;12.20;99.90;;;;;;4995674;28;20101;-76
2023/03/24 09:11:23;;;;;;;24.63;3.63;;;12.30;99.90;;;;;;4995393;28;20421;-75
2023/03/24 09:13:49;;;;;;;25.98;3.58;;;12.40;99.90;;;;;;4988358;28;20088;-76
2023/03/24 09:16:16;;;;;;;25.17;3.70;;;12.30;99.90;;;;;;4993965;28;20104;-76
2023/03/24 09:18:43;;;;;;;22.40;3.35;;;12.40;99.90;;;;;;4986808;28;20037;-76
2023/03/24 09:21:09;;;;;;;25.08;3.90;;;12.30;99.90;;;;;;4989563;28;20057;-76
2023/03/24 09:23:35;;;;;;;23.17;3.58;;;12.30;99.90;;;;;;4993813;28;20034;-75
2023/03/24 09:26:02;;;;;;;21.75;3.13;;;12.30;99.90;;;;;;5003385;28;20034;-75
2023/03/24 09:28:28;;;;;;;22.92;3.90;;;12.30;99.90;;;;;;4991590;28;20130;-75
2023/03/24 09:31:02;;;;;;;19.73;3.67;;;12.30;99.90;;;;;;4980442;28;20050;-75
2023/03/24 09:33:31;;;;;;;26.30;3.75;;;12.30;99.90;;;;;;4985980;28;20061;-75
2023/03/24 09:35:58;;;;;;;20.42;3.55;;;12.20;99.90;;;;;;4992269;28;20027;-75
2023/03/24 09:38:24;;;;;;;21.45;3.60;;;12.30;99.90;;;;;;4991021;28;20389;-74
2023/03/24 09:40:55;;;;;;;18.10;3.03;;;12.40;99.90;;;;;;4989839;28;20041;-75
2023/03/24 09:43:37;;;;;;;23.27;3.33;;;12.50;99.90;;;;;;4994761;28;20540;-75
2023/03/24 09:46:05;;;;;;;16.83;2.92;;;12.60;99.90;;;;;;4994665;28;20030;-75
2023/03/24 09:48:42;;;;;;;21.90;3.03;;;12.60;99.90;;;;;;4981499;28;20043;-76
2023/03/24 09:51:19;;;;;;;23.08;3.50;;;12.60;99.90;;;;;;4986492;28;20038;-76
2023/03/24 09:53:54;;;;;;;20.55;3.67;;;12.70;99.90;;;;;;4994042;28;20038;-76
2023/03/24 09:56:22;;;;;;;19.88;3.38;;;12.80;99.90;;;;;;4992446;28;20045;-75
2023/03/24 09:58:53;;;;;;;20.58;3.47;;;12.80;99.90;;;;;;4993665;28;20173;-75
2023/03/24 10:01:20;;;;;;;22.02;3.72;;;12.70;99.90;;;;;;4994059;28;20030;-75
2023/03/24 10:03:45;;;;;;;22.15;3.92;;;12.70;99.90;;;;;;5000728;28;20029;-75
2023/03/24 10:06:25;;;;;;;19.08;3.63;;;12.60;99.90;;;;;;5013184;28;20022;-75
2023/03/24 10:09:03;;;;;;;18.70;2.88;;;12.70;99.90;;;;;;4993090;28;20385;-76
2023/03/24 10:11:53;;;;;;;18.90;3.40;;;12.70;99.90;;;;;;4991357;28;20042;-74
2023/03/24 10:14:32;;;;;;;19.05;3.10;;;12.80;99.90;;;;;;4983717;28;20134;-75
2023/03/24 10:17:16;;;;;;;20.25;3.42;;;12.80;99.90;;;;;;4993101;28;20026;-75
2023/03/24 10:20:04;;;;;;;18.02;3.30;;;13.00;99.90;;;;;;4993730;28;20026;-76
2023/03/24 10:22:40;;;;;;;22.27;3.00;;;13.10;99.90;;;;;;4994064;28;20113;-74
2023/03/24 10:25:21;;;;;;;17.38;3.10;;;13.10;99.90;;;;;;4993908;28;20034;-75
2023/03/24 10:27:53;;;;;;;20.10;3.00;;;13.10;99.90;;;;;;4992165;28;20025;-75
2023/03/24 10:30:30;;;;;;;17.35;3.08;;;13.00;99.90;;;;;;4992834;28;20358;-76
2023/03/24 10:32:57;;;;;;;19.90;3.28;;;13.10;99.90;;;;;;4993906;28;20030;-75
2023/03/24 10:35:35;;;;;;;21.20;3.42;;;13.10;99.90;;;;;;4992910;28;20026;-76
2023/03/24 10:38:10;;;;;;;20.60;3.60;;;13.10;99.90;;;;;;4982981;28;20026;-76
2023/03/24 10:40:36;;;;;;;17.20;3.00;;;13.10;99.90;;;;;;4993318;28;20177;-75
2023/03/24 10:43:04;;;;;;;24.25;3.85;;;13.20;99.90;;;;;;4993459;28;20065;-75
2023/03/24 10:45:33;;;;;;;19.27;3.38;;;13.20;99.90;;;;;;4992746;28;20022;-75
2023/03/24 10:48:01;;;;;;;24.63;3.60;;;13.30;99.90;;;;;;4993770;28;20101;-75
2023/03/24 10:50:28;;;;;;;21.73;3.38;;;13.30;99.90;;;;;;4991446;28;20133;-74
2023/03/24 10:52:54;;;;;;;18.05;3.35;;;13.30;99.90;;;;;;4991199;28;20041;-76
2023/03/24 10:55:23;;;;;;;19.33;4.07;;;13.30;99.90;;;;;;5001771;28;20019;-76
2023/03/24 10:57:59;;;;;;;18.48;2.92;;;13.30;99.90;;;;;;4995510;28;20102;-76
2023/03/24 11:00:30;;;;;;;22.48;2.92;;;13.20;99.90;;;;;;4986810;28;20041;-77
2023/03/24 11:03:11;;;;;;;21.55;3.22;;;13.10;99.90;;;;;;4995330;28;20041;-76
2023/03/24 11:05:39;;;;;;;19.45;2.63;;;13.00;99.90;;;;;;4997698;28;20040;-76
2023/03/24 11:08:32;;;;;;;25.58;3.20;;;13.00;99.90;;;;;;4990243;28;20023;-73
2023/03/24 11:10:58;;;;;;;23.83;3.08;;;12.90;99.90;;;;;;4996221;28;20034;-74
2023/03/24 11:13:33;;;;;;;19.42;2.00;;;12.90;99.90;;;;;;4996822;28;20382;-73
2023/03/24 11:16:12;;;;;;;17.83;2.55;;;12.90;99.90;;;;;;4988782;28;20060;-74
2023/03/24 11:19:13;;;;;;;13.15;2.83;;;13.00;99.90;;;;;;4985042;28;20038;-74
2023/03/24 11:21:41;;;;;;;13.77;2.35;;;13.10;99.90;;;;;;4973534;28;20512;-74
2023/03/24 11:24:11;;;;;;;11.45;2.40;;;13.20;99.90;;;;;;4983832;28;20033;-75
2023/03/24 11:26:38;;;;;;;11.18;1.88;;;13.30;99.90;;;;;;4992984;28;20027;-74
2023/03/24 11:29:08;;;;;;;10.18;2.33;;;13.40;99.90;;;;;;4996016;28;20038;-74
2023/03/24 11:31:38;;;;;;;15.85;2.42;;;13.40;99.90;;;;;;4986752;28;20089;-74
2023/03/24 11:34:40;;;;;;;15.13;2.33;;;13.50;99.90;;;;;;4992969;28;20453;-74
2023/03/24 11:37:25;;;;;;;9.45;1.70;;;13.60;99.90;;;;;;4987218;28;20081;-74
2023/03/24 11:40:11;;;;;;;16.50;2.40;;;13.60;99.90;;;;;;4989025;28;20026;-74
2023/03/24 11:42:42;;;;;;;11.75;2.13;;;13.50;99.90;;;;;;4990826;28;20039;-74
2023/03/24 11:45:22;;;;;;;14.88;2.10;;;13.50;99.90;;;;;;4995567;28;20022;-74
2023/03/24 11:47:49;;;;;;;16.13;2.13;;;13.40;99.90;;;;;;4981419;28;20445;-74
2023/03/24 11:50:30;;;;;;;16.80;2.15;;;13.30;99.90;;;;;;4995009;28;20027;-74
2023/03/24 11:53:06;;;;;;;14.05;2.45;;;13.30;99.90;;;;;;4995933;28;20118;-73
2023/03/24 11:55:40;;;;;;;15.32;2.72;;;13.30;99.90;;;;;;4986209;28;20027;-74
2023/03/24 11:58:26;;;;;;;18.02;2.83;;;13.30;99.90;;;;;;4992982;28;20018;-73
2023/03/24 12:01:10;;;;;;;19.50;2.42;;;13.40;99.90;;;;;;4996144;28;20030;-75
2023/03/24 12:03:45;;;;;;;14.23;2.47;;;13.50;99.90;;;;;;4976867;28;20472;-73
2023/03/24 12:06:34;;;;;;;20.05;3.17;;;13.40;99.90;;;;;;4977292;28;20062;-73
2023/03/24 12:09:37;;;;;;;19.08;2.70;;;13.50;99.90;;;;;;4984295;28;20029;-73
2023/03/24 12:12:24;;;;;;;16.98;2.58;;;13.40;99.90;;;;;;4990694;28;20094;-74
2023/03/24 12:14:49;;;;;;;22.13;3.08;;;13.30;99.90;;;;;;4977432;28;20029;-74
2023/03/24 12:17:16;;;;;;;16.27;2.78;;;13.20;99.90;;;;;;4991141;28;20105;-72
2023/03/24 12:20:00;;;;;;;21.85;3.17;;;13.10;99.90;;;;;;4987932;28;20632;-74
2023/03/24 12:22:47;;;;;;;18.83;3.10;;;13.10;99.90;;;;;;4995567;28;20073;-74
2023/03/24 12:25:40;;;;;;;17.40;3.08;;;13.10;99.90;;;;;;4983711;28;20518;-74
2023/03/24 12:28:09;;;;;;;16.02;3.10;;;13.00;99.90;;;;;;4987271;28;20011;-74
2023/03/24 12:30:56;;;;;;;25.58;3.40;;;13.00;99.90;;;;;;4986283;28;20480;-74
2023/03/24 12:33:46;;;;;;;17.85;2.72;;;13.00;99.90;;;;;;4994574;28;20065;-74
2023/03/24 12:36:23;;;;;;;15.88;3.17;;;13.00;99.90;;;;;;4992198;28;20492;-74
2023/03/24 12:39:34;;;;;;;15.90;2.60;;;13.00;99.90;;;;;;4991120;28;20126;-74
2023/03/24 12:42:14;;;;;;;15.68;2.35;;;13.00;99.90;;;;;;4993719;28;20095;-74
2023/03/24 12:45:17;;;;;;;17.50;3.00;;;13.00;99.90;;;;;;4997652;28;20421;-75
2023/03/24 12:48:01;;;;;;;20.02;3.45;;;13.10;99.90;;;;;;4982271;28;20031;-75
2023/03/24 12:50:51;;;;;;;22.17;3.03;;;13.10;99.90;;;;;;4981155;28;20034;-74
2023/03/24 12:53:40;;;;;;;19.70;3.30;;;13.20;99.90;;;;;;4990274;28;20061;-74
2023/03/24 12:56:17;;;;;;;25.88;3.22;;;13.20;99.90;;;;;;4993015;28;20044;-75
2023/03/24 12:58:48;;;;;;;20.50;2.95;;;13.10;99.90;;;;;;4991858;28;20030;-74
2023/03/24 13:01:28;;;;;;;12.90;2.42;;;13.00;99.90;;;;;;5002444;28;20034;-73